Terminal Aerodrome Forecast
Issued by NWS Newport/Morehead City, NC

Home | Current Version | Previous Version | Text Only | Print | Product List | Glossary Off
Versions: 1 2 3 4 5 6 7 8 9 10 11 12 13 14 15

370
FTUS42 KMHX 260531
TAFEWN
TAF
KEWN 260531Z 2606/2706 05005KT P6SM BKN035
     FM261400 07005KT P6SM SCT050
     FM262000 11005KT P6SM SCT050
     FM270500 VRB04KT P6SM BKN080=

USA.gov is the U.S. government's official web portal to all federal, state and local government web resources and services.